createdAt,value
2022-10-26T00:05:25.223Z,72
2022-10-26T00:11:05.299Z,68
2022-10-26T00:16:48.026Z,64
2022-10-26T00:22:28.096Z,66
2022-10-26T00:28:07.904Z,64
2022-10-26T00:33:48.076Z,64
2022-10-26T00:39:27.841Z,60
2022-10-26T00:45:07.718Z,64
2022-10-26T00:50:47.861Z,74
2022-10-26T00:56:27.892Z,64
2022-10-26T01:02:08.150Z,70
2022-10-26T01:07:50.677Z,70
2022-10-26T01:13:31.657Z,66
2022-10-26T01:19:11.625Z,66
2022-10-26T01:24:51.799Z,64
2022-10-26T01:30:32.005Z,66
2022-10-26T01:36:11.881Z,50
2022-10-26T01:41:51.945Z,64
2022-10-26T01:47:31.908Z,70
2022-10-26T01:53:12.171Z,56
2022-10-26T01:58:55.086Z,60
2022-10-26T02:04:35.108Z,64
2022-10-26T02:10:14.955Z,56
2022-10-26T02:15:55.085Z,60
2022-10-26T02:21:35.166Z,70
2022-10-26T02:27:15.117Z,58
2022-10-26T02:32:55.639Z,70
2022-10-26T02:38:35.622Z,56
2022-10-26T02:44:15.436Z,52
2022-10-26T02:49:55.532Z,58
2022-10-26T02:55:35.460Z,72
2022-10-26T03:01:16.319Z,60
2022-10-26T03:06:56.873Z,60
2022-10-26T03:12:37.210Z,72
2022-10-26T03:18:17.646Z,66
2022-10-26T03:23:58.039Z,66
2022-10-26T03:29:38.497Z,72
2022-10-26T03:35:18.685Z,70
2022-10-26T03:41:01.137Z,60
2022-10-26T03:46:41.517Z,68
2022-10-26T03:52:28.216Z,60
2022-10-26T03:58:15.318Z,72
2022-10-26T04:03:57.565Z,72
2022-10-26T04:09:39.941Z,64
2022-10-26T04:15:20.730Z,60
2022-10-26T04:21:01.156Z,72
2022-10-26T04:26:41.966Z,50
2022-10-26T04:32:22.378Z,70
2022-10-26T04:38:03.346Z,72
2022-10-26T04:43:43.789Z,66
2022-10-26T04:49:24.324Z,72
2022-10-26T04:55:05.695Z,76
2022-10-26T05:00:46.053Z,62
2022-10-26T05:06:26.317Z,66
2022-10-26T05:12:06.352Z,72
2022-10-26T05:17:51.947Z,76
2022-10-26T05:23:32.857Z,58
2022-10-26T05:29:13.750Z,70
2022-10-26T05:34:54.771Z,60
2022-10-26T05:40:37.335Z,66
2022-10-26T05:46:17.534Z,66
2022-10-26T05:51:57.765Z,72
2022-10-26T05:57:38.151Z,72
2022-10-26T06:03:18.917Z,62
2022-10-26T06:08:59.524Z,70
2022-10-26T06:14:39.733Z,66
2022-10-26T06:20:20.254Z,56
2022-10-26T06:26:00.672Z,64
2022-10-26T06:31:43.784Z,60
2022-10-26T06:37:24.126Z,60
2022-10-26T06:43:04.216Z,74
2022-10-26T06:48:44.604Z,62
2022-10-26T06:54:24.870Z,60
2022-10-26T07:00:07.039Z,64
2022-10-26T07:05:50.820Z,60
2022-10-26T07:11:30.683Z,72
2022-10-26T07:17:15.782Z,60
2022-10-26T07:22:56.305Z,66
2022-10-26T07:28:37.089Z,64
2022-10-26T07:34:18.331Z,70
2022-10-26T07:40:07.875Z,70
2022-10-26T07:45:48.682Z,70
2022-10-26T07:51:28.924Z,78
2022-10-26T07:57:09.510Z,66
2022-10-26T08:02:50.238Z,66
2022-10-26T08:08:30.616Z,70
2022-10-26T08:14:10.773Z,76
2022-10-26T08:19:50.782Z,66
2022-10-26T08:25:31.657Z,64
2022-10-26T08:31:12.798Z,82
2022-10-26T08:36:53.643Z,74
2022-10-26T08:42:34.075Z,76
2022-10-26T08:48:14.728Z,70
2022-10-26T08:53:55.049Z,76
2022-10-26T08:59:36.319Z,74
2022-10-26T09:05:19.402Z,74
2022-10-26T09:10:59.627Z,22
2022-10-26T09:16:43.057Z,30
2022-10-26T09:22:29.376Z,20
2022-10-26T09:28:09.757Z,30
2022-10-26T09:33:59.450Z,20
2022-10-26T09:39:43.611Z,30
2022-10-26T09:45:23.732Z,26
2022-10-26T09:51:06.532Z,16
2022-10-26T09:56:46.534Z,14
2022-10-26T10:02:27.220Z,18
2022-10-26T10:08:07.491Z,12
2022-10-26T10:13:47.840Z,38
2022-10-26T10:19:27.968Z,14
2022-10-26T10:25:13.129Z,18
2022-10-26T10:30:54.411Z,4
2022-10-26T10:36:38.309Z,2
2022-10-26T10:42:18.861Z,14
2022-10-26T10:47:59.451Z,0
2022-10-26T10:53:40.051Z,0
2022-10-26T10:59:21.031Z,0
2022-10-26T11:05:08.617Z,0
2022-10-26T11:10:48.984Z,0
2022-10-26T11:16:29.691Z,0
2022-10-26T11:22:12.662Z,0
2022-10-26T11:27:53.542Z,8
2022-10-26T11:33:34.246Z,10
2022-10-26T11:39:21.762Z,16
2022-10-26T11:45:03.087Z,22
2022-10-26T11:50:45.051Z,14
2022-10-26T11:56:26.065Z,20
2022-10-26T12:02:07.044Z,8
2022-10-26T12:07:49.454Z,16
2022-10-26T12:13:30.931Z,16
2022-10-26T12:19:17.161Z,20
2022-10-26T12:25:15.844Z,18
2022-10-26T12:30:56.416Z,16
2022-10-26T12:36:38.238Z,28
2022-10-26T12:42:18.996Z,28
2022-10-26T12:48:39.937Z,24
2022-10-26T12:54:20.746Z,16
2022-10-26T13:00:00.805Z,0
2022-10-26T13:05:41.221Z,2
2022-10-26T13:11:21.167Z,0
2022-10-26T13:17:02.437Z,32
2022-10-26T13:22:43.706Z,20
2022-10-26T13:28:30.737Z,36
2022-10-26T13:34:12.034Z,22
2022-10-26T13:39:53.012Z,8
2022-10-26T13:45:33.361Z,30
2022-10-26T13:51:13.120Z,20
2022-10-26T13:56:58.508Z,4
2022-10-26T14:02:38.749Z,18
2022-10-26T14:08:22.093Z,62
2022-10-26T14:14:02.983Z,82
2022-10-26T14:19:45.184Z,36
2022-10-26T14:25:59.913Z,78
2022-10-26T14:31:40.543Z,70
2022-10-26T14:37:20.310Z,70
2022-10-26T14:43:00.632Z,70
2022-10-26T14:48:41.174Z,78
2022-10-26T14:54:21.346Z,66
2022-10-26T15:00:05.022Z,70
2022-10-26T15:05:45.674Z,80
2022-10-26T15:11:25.532Z,78
2022-10-26T15:17:05.469Z,78
2022-10-26T15:22:45.815Z,78
2022-10-26T15:28:25.866Z,76
2022-10-26T15:34:05.742Z,70
2022-10-26T15:39:46.159Z,68
2022-10-26T15:45:26.411Z,66
2022-10-26T15:51:06.648Z,78
2022-10-26T15:56:46.829Z,72
2022-10-26T16:02:27.607Z,66
2022-10-26T16:08:08.398Z,74
2022-10-26T16:13:52.023Z,76
2022-10-26T16:19:32.485Z,78
2022-10-26T16:25:16.218Z,72
2022-10-26T16:30:56.362Z,66
2022-10-26T16:36:36.632Z,66
2022-10-26T16:42:17.248Z,70
2022-10-26T16:47:57.629Z,76
2022-10-26T16:53:37.478Z,72
2022-10-26T16:59:17.428Z,68
2022-10-26T17:05:08.036Z,76
2022-10-26T17:10:48.611Z,78
2022-10-26T17:16:28.472Z,70
2022-10-26T17:22:09.390Z,78
2022-10-26T17:27:55.196Z,64
2022-10-26T17:33:42.686Z,66
2022-10-26T17:40:14.703Z,72
2022-10-26T17:45:55.476Z,74
2022-10-26T17:51:47.526Z,70
2022-10-26T17:57:36.249Z,64
2022-10-26T18:03:19.064Z,76
2022-10-26T18:09:09.882Z,66
2022-10-26T18:15:03.383Z,76
2022-10-26T18:20:51.180Z,72
2022-10-26T18:26:31.203Z,68
2022-10-26T18:32:32.835Z,70
2022-10-26T18:38:25.058Z,76
2022-10-26T18:44:52.837Z,72
2022-10-26T18:50:42.105Z,60
2022-10-26T18:56:31.103Z,64
2022-10-26T19:07:13.768Z,76
2022-10-26T19:13:21.931Z,64
2022-10-26T19:19:19.396Z,72
2022-10-26T19:25:14.264Z,66
2022-10-26T19:31:11.540Z,60
2022-10-26T19:36:51.771Z,60
2022-10-26T19:42:32.215Z,78
2022-10-26T19:48:12.642Z,64
2022-10-26T19:53:52.458Z,62
2022-10-26T19:59:33.559Z,64
2022-10-26T20:05:13.691Z,62
2022-10-26T20:10:54.700Z,64
2022-10-26T20:16:34.754Z,64
2022-10-26T20:22:17.661Z,66
2022-10-26T20:27:57.808Z,62
2022-10-26T20:33:38.211Z,64
2022-10-26T20:39:18.761Z,74
2022-10-26T20:44:58.874Z,76
2022-10-26T20:50:39.507Z,62
2022-10-26T20:56:20.419Z,68
2022-10-26T21:02:01.007Z,64
2022-10-26T21:07:41.883Z,70
2022-10-26T21:13:22.697Z,74
2022-10-26T21:19:03.647Z,74
2022-10-26T21:24:46.628Z,76
2022-10-26T21:30:26.911Z,68
2022-10-26T21:36:06.951Z,66
2022-10-26T21:41:47.009Z,76
2022-10-26T21:47:27.274Z,70
2022-10-26T21:53:07.533Z,64
2022-10-26T21:58:48.287Z,72
2022-10-26T22:04:29.093Z,64
2022-10-26T22:10:12.238Z,60
2022-10-26T22:15:52.444Z,60
2022-10-26T22:21:34.824Z,72
2022-10-26T22:27:14.950Z,70
2022-10-26T22:32:55.534Z,66
2022-10-26T22:38:36.223Z,76
2022-10-26T22:44:16.269Z,76
2022-10-26T22:50:01.842Z,74
2022-10-26T22:55:41.688Z,72
2022-10-26T23:01:23.173Z,66
2022-10-26T23:07:03.535Z,66
2022-10-26T23:12:46.406Z,70
2022-10-26T23:18:26.475Z,62
2022-10-26T23:24:06.430Z,64
2022-10-26T23:29:46.660Z,60
2022-10-26T23:35:26.593Z,76
2022-10-26T23:41:13.616Z,60
2022-10-26T23:46:53.986Z,74
2022-10-26T23:52:34.185Z,72
2022-10-26T23:58:14.764Z,68
